createdAt,value
2023-03-01T00:01:25.170Z,99.90
2023-03-01T00:03:53.379Z,99.90
2023-03-01T00:06:21.674Z,99.90
2023-03-01T00:08:49.684Z,99.90
2023-03-01T00:11:26.177Z,99.90
2023-03-01T00:13:56.143Z,99.90
2023-03-01T00:16:30.417Z,99.90
2023-03-01T00:18:59.120Z,99.90
2023-03-01T00:21:27.594Z,99.90
2023-03-01T00:23:55.796Z,99.90
2023-03-01T00:26:24.709Z,99.90
2023-03-01T00:28:52.724Z,99.90
2023-03-01T00:31:23.116Z,99.90
2023-03-01T00:33:57.968Z,99.90
2023-03-01T00:36:31.307Z,99.90
2023-03-01T00:38:59.094Z,99.90
2023-03-01T00:41:27.972Z,99.90
2023-03-01T00:43:55.990Z,99.90
2023-03-01T00:46:26.651Z,99.90
2023-03-01T00:48:54.707Z,99.90
2023-03-01T00:51:28.127Z,99.90
2023-03-01T00:54:00.878Z,99.90
2023-03-01T00:56:28.797Z,99.90
2023-03-01T00:58:56.400Z,99.90
2023-03-01T01:01:32.717Z,99.90
2023-03-01T01:04:03.396Z,99.90
2023-03-01T01:06:34.661Z,99.90
2023-03-01T01:09:03.960Z,99.90
2023-03-01T01:11:32.280Z,99.90
2023-03-01T01:14:00.311Z,99.90
2023-03-01T01:16:29.775Z,99.90
2023-03-01T01:18:58.062Z,99.90
2023-03-01T01:21:26.221Z,99.90
2023-03-01T01:23:54.186Z,99.90
2023-03-01T01:26:30.673Z,99.90
2023-03-01T01:28:59.328Z,99.90
2023-03-01T01:31:27.592Z,99.90
2023-03-01T01:33:55.777Z,99.90
2023-03-01T01:36:23.908Z,99.90
2023-03-01T01:38:51.861Z,99.90
2023-03-01T01:41:19.372Z,99.90
2023-03-01T01:43:50.000Z,99.90
2023-03-01T01:46:33.432Z,99.90
2023-03-01T01:49:06.699Z,99.90
2023-03-01T01:51:41.081Z,99.90
2023-03-01T01:54:14.522Z,99.90
2023-03-01T01:56:45.198Z,99.90
2023-03-01T01:59:13.309Z,99.90
2023-03-01T02:01:40.691Z,99.90
2023-03-01T02:04:08.039Z,99.90
2023-03-01T02:06:42.780Z,99.90
2023-03-01T02:09:15.479Z,99.90
2023-03-01T02:11:45.127Z,99.90
2023-03-01T02:14:12.509Z,99.90
2023-03-01T02:16:39.852Z,99.90
2023-03-01T02:19:11.600Z,99.90
2023-03-01T02:21:51.940Z,99.90
2023-03-01T02:24:36.146Z,99.90
2023-03-01T02:27:03.622Z,99.90
2023-03-01T02:29:31.146Z,99.90
2023-03-01T02:32:03.002Z,99.90
2023-03-01T02:34:32.518Z,99.90
2023-03-01T02:37:13.574Z,99.90
2023-03-01T02:39:48.801Z,99.90
2023-03-01T02:42:21.198Z,99.90
2023-03-01T02:44:50.468Z,99.90
2023-03-01T02:47:17.770Z,99.90
2023-03-01T02:49:45.066Z,99.90
2023-03-01T02:52:21.458Z,99.90
2023-03-01T02:54:58.901Z,99.90
2023-03-01T02:57:28.506Z,99.90
2023-03-01T02:59:58.671Z,99.90
2023-03-01T03:02:38.809Z,99.90
2023-03-01T03:05:13.871Z,99.90
2023-03-01T03:07:43.967Z,99.90
2023-03-01T03:10:24.803Z,99.90
2023-03-01T03:12:54.762Z,99.90
2023-03-01T03:15:23.100Z,99.90
2023-03-01T03:17:51.279Z,99.90
2023-03-01T03:20:20.954Z,99.90
2023-03-01T03:22:50.164Z,99.90
2023-03-01T03:25:18.480Z,99.90
2023-03-01T03:27:47.811Z,99.90
2023-03-01T03:30:18.087Z,99.90
2023-03-01T03:32:53.153Z,99.90
2023-03-01T03:35:48.226Z,99.90
2023-03-01T03:38:18.585Z,99.90
2023-03-01T03:40:52.587Z,99.90
2023-03-01T03:43:22.566Z,99.90
2023-03-01T03:45:51.921Z,99.90
2023-03-01T03:48:19.894Z,99.90
2023-03-01T03:50:52.286Z,99.90
2023-03-01T03:53:20.455Z,99.90
2023-03-01T03:55:50.239Z,99.90
2023-03-01T03:58:20.611Z,99.90
2023-03-01T04:00:56.604Z,99.90
2023-03-01T04:03:25.531Z,99.90
2023-03-01T04:05:53.767Z,99.90
2023-03-01T04:08:23.222Z,99.90
2023-03-01T04:10:53.282Z,99.90
2023-03-01T04:13:23.255Z,99.90
2023-03-01T04:15:51.786Z,99.90
2023-03-01T04:18:23.785Z,99.90
2023-03-01T04:20:53.229Z,99.90
2023-03-01T04:23:21.984Z,99.90
2023-03-01T04:25:54.693Z,99.90
2023-03-01T04:28:35.160Z,99.90
2023-03-01T04:31:22.457Z,99.90
2023-03-01T04:33:55.266Z,99.90
2023-03-01T04:36:25.783Z,99.90
2023-03-01T04:38:53.772Z,99.90
2023-03-01T04:41:24.253Z,99.90
2023-03-01T04:43:51.679Z,99.90
2023-03-01T04:46:21.136Z,99.90
2023-03-01T04:48:49.330Z,99.90
2023-03-01T04:51:17.088Z,99.90
2023-03-01T04:53:45.667Z,99.90
2023-03-01T04:56:14.836Z,99.90
2023-03-01T04:58:43.038Z,99.90
2023-03-01T05:01:18.532Z,99.90
2023-03-01T05:03:47.836Z,99.90
2023-03-01T05:06:16.473Z,99.90
2023-03-01T05:08:44.669Z,99.90
2023-03-01T05:11:13.300Z,99.90
2023-03-01T05:13:41.019Z,99.90
2023-03-01T05:16:12.226Z,99.90
2023-03-01T05:18:41.044Z,99.90
2023-03-01T05:21:11.217Z,99.90
2023-03-01T05:23:39.375Z,99.90
2023-03-01T05:26:16.141Z,99.90
2023-03-01T05:28:49.675Z,99.90
2023-03-01T05:31:17.051Z,99.90
2023-03-01T05:33:44.502Z,99.90
2023-03-01T05:36:12.011Z,99.90
2023-03-01T05:38:39.283Z,99.90
2023-03-01T05:41:14.388Z,99.90
2023-03-01T05:43:44.449Z,99.90
2023-03-01T05:46:14.356Z,99.90
2023-03-01T05:48:41.964Z,99.90
2023-03-01T05:51:09.261Z,99.90
2023-03-01T05:53:36.749Z,99.90
2023-03-01T05:56:05.320Z,99.90
2023-03-01T05:58:33.099Z,99.90
2023-03-01T06:01:00.459Z,99.90
2023-03-01T06:03:27.825Z,99.90
2023-03-01T06:05:59.064Z,99.90
2023-03-01T06:08:28.194Z,99.90
2023-03-01T06:10:55.744Z,99.90
2023-03-01T06:13:24.389Z,99.90
2023-03-01T06:15:52.966Z,99.90
2023-03-01T06:18:20.457Z,99.90
2023-03-01T06:20:54.928Z,99.90
2023-03-01T06:23:23.301Z,99.90
2023-03-01T06:25:50.673Z,99.90
2023-03-01T06:28:17.978Z,99.90
2023-03-01T06:30:45.583Z,99.90
2023-03-01T06:33:12.986Z,99.90
2023-03-01T06:35:42.525Z,99.90
2023-03-01T06:38:10.693Z,99.90
2023-03-01T06:40:38.100Z,99.90
2023-03-01T06:43:05.614Z,99.90
2023-03-01T06:45:33.311Z,99.90
2023-03-01T06:48:08.373Z,99.90
2023-03-01T06:50:36.557Z,99.90
2023-03-01T06:53:04.014Z,99.90
2023-03-01T06:55:31.982Z,99.90
2023-03-01T06:58:00.528Z,99.90
2023-03-01T07:00:29.072Z,99.90
2023-03-01T07:03:00.367Z,99.90
2023-03-01T07:05:27.768Z,99.90
2023-03-01T07:07:56.019Z,99.90
2023-03-01T07:10:23.899Z,99.90
2023-03-01T07:12:51.281Z,99.90
2023-03-01T07:15:18.667Z,99.90
2023-03-01T07:17:48.549Z,99.90
2023-03-01T07:20:16.196Z,99.90
2023-03-01T07:22:43.521Z,99.90
2023-03-01T07:25:12.016Z,99.90
2023-03-01T07:27:39.352Z,99.90
2023-03-01T07:30:07.430Z,99.90
2023-03-01T07:32:34.803Z,99.90
2023-03-01T07:35:02.274Z,99.90
2023-03-01T07:37:29.512Z,99.90
2023-03-01T07:39:56.760Z,99.90
2023-03-01T07:42:24.071Z,99.90
2023-03-01T07:44:51.346Z,99.90
2023-03-01T07:47:18.633Z,99.90
2023-03-01T07:49:45.960Z,99.90
2023-03-01T07:52:13.270Z,99.90
2023-03-01T07:54:43.830Z,99.90
2023-03-01T07:57:11.860Z,99.90
2023-03-01T07:59:39.169Z,99.90
2023-03-01T08:02:06.911Z,99.90
2023-03-01T08:04:34.532Z,99.90
2023-03-01T08:07:01.913Z,99.90
2023-03-01T08:09:29.156Z,96.60
2023-03-01T08:12:00.490Z,96.50
2023-03-01T08:14:27.894Z,96.90
2023-03-01T08:16:55.976Z,99.90
2023-03-01T08:19:23.305Z,99.90
2023-03-01T08:21:50.690Z,99.90
2023-03-01T08:24:18.039Z,99.90
2023-03-01T08:26:45.305Z,99.90
2023-03-01T08:29:12.617Z,97.20
2023-03-01T08:31:41.400Z,92.80
2023-03-01T08:34:13.097Z,88.20
2023-03-01T08:36:43.225Z,78.80
2023-03-01T08:39:13.514Z,76.10
2023-03-01T08:41:41.473Z,68.50
2023-03-01T08:44:10.253Z,60.50
2023-03-01T08:46:40.153Z,55.60
2023-03-01T08:49:09.383Z,52.90
2023-03-01T08:51:39.998Z,49.80
2023-03-01T08:54:15.922Z,50.50
2023-03-01T08:56:43.537Z,48.60
2023-03-01T08:59:12.765Z,47.90
2023-03-01T09:01:41.194Z,48.20
2023-03-01T09:06:35.818Z,45.90
2023-03-01T09:09:04.845Z,46.00
2023-03-01T09:11:32.170Z,44.50
2023-03-01T09:13:59.416Z,43.80
2023-03-01T09:16:26.835Z,43.20
2023-03-01T09:18:55.638Z,41.90
2023-03-01T09:21:39.055Z,39.60
2023-03-01T09:24:15.325Z,40.50
2023-03-01T09:26:43.455Z,39.60
2023-03-01T09:29:11.100Z,40.70
2023-03-01T09:31:39.222Z,39.70
2023-03-01T09:34:06.682Z,40.00
2023-03-01T09:36:34.583Z,38.10
2023-03-01T09:39:03.571Z,38.40
2023-03-01T09:41:45.937Z,37.30
2023-03-01T09:44:47.073Z,37.30
2023-03-01T09:47:18.455Z,37.30
2023-03-01T09:49:52.723Z,37.70
2023-03-01T09:52:32.419Z,36.60
2023-03-01T09:55:01.012Z,36.80
2023-03-01T09:57:28.444Z,36.50
2023-03-01T10:00:21.068Z,35.30
2023-03-01T10:02:53.755Z,35.70
2023-03-01T10:05:37.309Z,34.70
2023-03-01T10:08:30.356Z,33.00
2023-03-01T10:10:59.418Z,33.10
2023-03-01T10:13:39.367Z,31.30
2023-03-01T10:16:38.542Z,33.00
2023-03-01T10:19:07.614Z,31.70
2023-03-01T10:21:42.159Z,30.00
2023-03-01T10:24:14.039Z,29.10
2023-03-01T10:27:00.010Z,29.30
2023-03-01T10:29:45.629Z,29.00
2023-03-01T10:32:13.244Z,27.80
2023-03-01T10:34:40.686Z,26.10
2023-03-01T10:37:13.244Z,26.50
2023-03-01T10:39:58.883Z,24.80
2023-03-01T10:42:36.541Z,26.70
2023-03-01T10:45:28.921Z,27.20
2023-03-01T10:48:05.422Z,28.30
2023-03-01T10:50:33.131Z,28.10
2023-03-01T10:53:05.310Z,27.80
2023-03-01T10:55:37.802Z,28.40
2023-03-01T10:58:09.788Z,26.40
2023-03-01T11:00:53.528Z,27.60
2023-03-01T11:03:24.185Z,29.40
2023-03-01T11:05:56.216Z,35.10
2023-03-01T11:08:38.581Z,40.80
2023-03-01T11:11:10.445Z,45.60
2023-03-01T11:13:49.448Z,47.70
2023-03-01T11:16:28.927Z,51.00
2023-03-01T11:19:09.976Z,52.30
2023-03-01T11:21:54.358Z,56.50
2023-03-01T11:24:33.082Z,58.90
2023-03-01T11:27:05.185Z,59.10
2023-03-01T11:29:48.948Z,59.50
2023-03-01T11:32:17.403Z,61.30
2023-03-01T11:34:56.719Z,63.10
2023-03-01T11:37:50.077Z,59.10
2023-03-01T11:40:36.400Z,61.70
2023-03-01T11:43:21.902Z,60.20
2023-03-01T11:45:59.369Z,62.20
2023-03-01T11:48:49.934Z,63.60
2023-03-01T11:51:47.309Z,62.00
2023-03-01T11:54:27.283Z,62.50
2023-03-01T11:56:54.534Z,59.10
2023-03-01T11:59:30.538Z,58.90
2023-03-01T12:02:15.840Z,59.20
2023-03-01T12:05:05.515Z,58.10
2023-03-01T12:08:17.444Z,58.60
2023-03-01T12:10:58.155Z,58.00
2023-03-01T12:13:51.098Z,57.40
2023-03-01T12:16:39.587Z,56.40
2023-03-01T12:19:28.465Z,56.70
2023-03-01T12:22:05.543Z,56.80
2023-03-01T12:24:50.014Z,56.50
2023-03-01T12:27:42.156Z,54.30
2023-03-01T12:30:43.532Z,54.70
2023-03-01T12:33:29.700Z,55.30
2023-03-01T12:36:20.881Z,53.40
2023-03-01T12:38:57.272Z,53.50
2023-03-01T12:41:49.538Z,55.10
2023-03-01T12:44:45.023Z,55.30
2023-03-01T12:47:25.022Z,53.60
2023-03-01T12:50:12.428Z,54.30
2023-03-01T12:52:48.444Z,54.60
2023-03-01T12:55:40.677Z,54.70
2023-03-01T12:58:25.609Z,54.00
2023-03-01T13:01:31.521Z,55.40
2023-03-01T13:04:37.816Z,56.00
2023-03-01T13:07:16.906Z,55.90
2023-03-01T13:10:22.643Z,55.70
2023-03-01T13:12:49.835Z,57.10
2023-03-01T13:15:38.276Z,56.70
2023-03-01T13:18:17.610Z,57.00
2023-03-01T13:20:44.848Z,56.00
2023-03-01T13:23:21.440Z,55.90
2023-03-01T13:26:05.810Z,57.70
2023-03-01T13:28:38.732Z,58.80
2023-03-01T13:31:11.386Z,58.50
2023-03-01T13:33:48.023Z,59.30
2023-03-01T13:36:37.035Z,59.60
2023-03-01T13:39:27.446Z,58.50
2023-03-01T13:41:58.397Z,59.00
2023-03-01T13:44:34.068Z,58.20
2023-03-01T13:47:07.216Z,57.40
2023-03-01T13:49:51.982Z,56.50
2023-03-01T13:52:44.036Z,56.00
2023-03-01T13:55:25.673Z,55.00
2023-03-01T13:57:58.722Z,55.60
2023-03-01T14:00:31.371Z,55.70
2023-03-01T14:03:19.202Z,56.60
2023-03-01T14:06:15.958Z,58.60
2023-03-01T14:08:47.010Z,58.00
2023-03-01T14:11:41.353Z,58.70
2023-03-01T14:14:44.932Z,58.30
2023-03-01T14:17:40.170Z,60.60
2023-03-01T14:20:23.250Z,57.90
2023-03-01T14:22:55.269Z,59.40
2023-03-01T14:25:24.529Z,58.30
2023-03-01T14:28:05.861Z,57.10
2023-03-01T14:30:35.983Z,57.20
2023-03-01T14:33:07.523Z,57.50
2023-03-01T14:35:37.061Z,58.10
2023-03-01T14:38:04.713Z,57.60
2023-03-01T14:40:35.976Z,57.10
2023-03-01T14:43:12.116Z,57.80
2023-03-01T14:45:39.567Z,58.20
2023-03-01T14:48:08.502Z,59.10
2023-03-01T14:50:41.018Z,59.20
2023-03-01T14:53:16.410Z,57.90
2023-03-01T14:55:47.716Z,58.10
2023-03-01T14:58:19.409Z,58.60
2023-03-01T15:00:56.442Z,58.70
2023-03-01T15:03:44.903Z,57.00
2023-03-01T15:06:15.822Z,57.90
2023-03-01T15:08:46.834Z,58.40
2023-03-01T15:11:23.896Z,57.20
2023-03-01T15:13:52.373Z,56.50
2023-03-01T15:16:21.849Z,55.80
2023-03-01T15:19:08.453Z,57.20
2023-03-01T15:21:39.720Z,57.30
2023-03-01T15:24:06.985Z,58.50
2023-03-01T15:26:40.279Z,58.30
2023-03-01T15:29:18.234Z,56.80
2023-03-01T15:32:04.719Z,56.20
2023-03-01T15:34:34.519Z,56.80
2023-03-01T15:37:06.478Z,56.70
2023-03-01T15:39:44.340Z,56.90
2023-03-01T15:42:29.718Z,55.60
2023-03-01T15:45:17.763Z,57.10
2023-03-01T15:47:51.100Z,56.90
2023-03-01T15:50:28.129Z,55.40
2023-03-01T15:52:56.657Z,54.60
2023-03-01T15:55:30.558Z,55.30
2023-03-01T15:58:13.364Z,55.30
2023-03-01T16:00:48.776Z,55.40
2023-03-01T16:03:25.610Z,55.00
2023-03-01T16:05:52.971Z,54.90
2023-03-01T16:08:20.569Z,55.40
2023-03-01T16:10:50.743Z,55.70
2023-03-01T16:13:18.614Z,55.70
2023-03-01T16:15:45.961Z,55.00
2023-03-01T16:18:13.322Z,56.40
2023-03-01T16:20:41.256Z,57.10
2023-03-01T16:23:11.250Z,58.30
2023-03-01T16:25:38.871Z,59.30
2023-03-01T16:28:10.209Z,59.40
2023-03-01T16:30:39.114Z,59.10
2023-03-01T16:33:23.994Z,59.40
2023-03-01T16:35:52.234Z,59.40
2023-03-01T16:38:19.493Z,58.90
2023-03-01T16:40:50.181Z,59.50
2023-03-01T16:43:17.474Z,60.20
2023-03-01T16:45:45.870Z,60.70
2023-03-01T16:48:13.775Z,62.00
2023-03-01T16:50:41.139Z,63.20
2023-03-01T16:53:08.541Z,63.50
2023-03-01T16:55:35.964Z,63.40
2023-03-01T16:58:03.559Z,64.30
2023-03-01T17:00:30.904Z,64.00
2023-03-01T17:02:58.308Z,64.90
2023-03-01T17:05:26.673Z,66.70
2023-03-01T17:07:56.579Z,68.90
2023-03-01T17:10:24.039Z,72.50
2023-03-01T17:12:51.614Z,75.10
2023-03-01T17:15:19.175Z,77.90
2023-03-01T17:17:47.920Z,78.70
2023-03-01T17:20:15.284Z,78.70
2023-03-01T17:22:42.529Z,79.70
2023-03-01T17:25:11.079Z,82.30
2023-03-01T17:27:39.627Z,86.30
2023-03-01T17:30:13.064Z,89.50
2023-03-01T17:32:40.691Z,91.00
2023-03-01T17:35:08.748Z,91.70
2023-03-01T17:37:37.060Z,92.90
2023-03-01T17:40:05.145Z,92.40
2023-03-01T17:42:32.950Z,93.10
2023-03-01T17:45:00.693Z,94.50
2023-03-01T17:47:28.022Z,94.40
2023-03-01T17:49:55.497Z,95.20
2023-03-01T17:52:23.961Z,96.50
2023-03-01T17:54:51.306Z,97.60
2023-03-01T17:57:18.537Z,99.70
2023-03-01T17:59:45.939Z,99.90
2023-03-01T18:02:13.585Z,99.90
2023-03-01T18:04:40.959Z,99.90
2023-03-01T18:07:08.286Z,99.90
2023-03-01T18:09:35.530Z,99.90
2023-03-01T18:12:02.803Z,99.90
2023-03-01T18:14:33.808Z,99.90
2023-03-01T18:17:04.232Z,99.90
2023-03-01T18:19:31.633Z,99.90
2023-03-01T18:21:58.873Z,99.90
2023-03-01T18:24:26.140Z,99.90
2023-03-01T18:26:53.423Z,99.90
2023-03-01T18:29:20.643Z,99.90
2023-03-01T18:31:48.247Z,99.90
2023-03-01T18:34:15.693Z,99.90
2023-03-01T18:36:47.937Z,99.90
2023-03-01T18:39:20.495Z,99.90
2023-03-01T18:41:47.988Z,99.90
2023-03-01T18:44:16.587Z,99.90
2023-03-01T18:46:46.231Z,99.90
2023-03-01T18:49:15.447Z,99.90
2023-03-01T18:51:43.655Z,99.90
2023-03-01T18:54:12.599Z,99.90
2023-03-01T18:56:40.203Z,99.90
2023-03-01T18:59:08.001Z,99.90
2023-03-01T19:01:37.542Z,99.90
2023-03-01T19:04:05.489Z,99.90
2023-03-01T19:06:35.265Z,99.90
2023-03-01T19:09:03.902Z,99.90
2023-03-01T19:11:33.389Z,99.90
2023-03-01T19:14:01.816Z,99.90
2023-03-01T19:16:32.067Z,99.90
2023-03-01T19:19:01.610Z,99.90
2023-03-01T19:21:31.332Z,99.90
2023-03-01T19:23:59.511Z,99.90
2023-03-01T19:26:27.912Z,99.90
2023-03-01T19:28:56.355Z,99.90
2023-03-01T19:31:26.554Z,99.90
2023-03-01T19:34:05.327Z,99.90
2023-03-01T19:36:36.277Z,99.90
2023-03-01T19:39:06.858Z,99.90
2023-03-01T19:41:34.390Z,99.90
2023-03-01T19:44:05.955Z,99.90
2023-03-01T19:46:34.432Z,99.90
2023-03-01T19:49:03.363Z,99.90
2023-03-01T19:51:33.385Z,99.90
2023-03-01T19:54:00.835Z,99.90
2023-03-01T19:56:28.423Z,99.90
2023-03-01T19:59:00.377Z,99.90
2023-03-01T20:01:29.718Z,99.90
2023-03-01T20:03:57.214Z,99.90
2023-03-01T20:06:25.769Z,99.90
2023-03-01T20:08:53.330Z,99.90
2023-03-01T20:11:21.216Z,99.90
2023-03-01T20:13:48.511Z,99.90
2023-03-01T20:16:18.309Z,99.90
2023-03-01T20:18:46.272Z,99.90
2023-03-01T20:21:23.613Z,99.90
2023-03-01T20:23:52.770Z,99.90
2023-03-01T20:26:23.650Z,99.90
2023-03-01T20:28:52.982Z,99.90
2023-03-01T20:31:22.830Z,99.90
2023-03-01T20:33:50.166Z,99.90
2023-03-01T20:36:18.114Z,99.90
2023-03-01T20:38:45.400Z,99.90
2023-03-01T20:41:14.198Z,99.90
2023-03-01T20:43:42.438Z,99.90
2023-03-01T20:46:12.782Z,99.90
2023-03-01T20:48:43.033Z,99.90
2023-03-01T20:51:12.160Z,99.90
2023-03-01T20:53:39.827Z,99.90
2023-03-01T20:56:12.151Z,99.90
2023-03-01T20:58:40.588Z,99.90
2023-03-01T21:01:09.474Z,99.90
2023-03-01T21:03:36.817Z,99.90
2023-03-01T21:06:06.180Z,99.90
2023-03-01T21:08:35.159Z,99.90
2023-03-01T21:11:05.688Z,99.90
2023-03-01T21:13:34.556Z,99.90
2023-03-01T21:16:13.717Z,99.90
2023-03-01T21:18:41.922Z,99.90
2023-03-01T21:21:15.370Z,99.90
2023-03-01T21:23:43.754Z,99.90
2023-03-01T21:26:25.268Z,99.90
2023-03-01T21:28:57.928Z,99.90
2023-03-01T21:31:28.216Z,99.90
2023-03-01T21:33:57.396Z,99.90
2023-03-01T21:36:25.663Z,99.90
2023-03-01T21:38:53.941Z,99.90
2023-03-01T21:41:24.030Z,99.90
2023-03-01T21:43:53.379Z,99.90
2023-03-01T21:46:23.432Z,99.90
2023-03-01T21:48:52.697Z,99.90
2023-03-01T21:51:21.501Z,99.90
2023-03-01T21:53:50.522Z,99.90
2023-03-01T21:56:20.458Z,99.90
2023-03-01T21:58:48.237Z,99.90
2023-03-01T22:01:18.290Z,99.90
2023-03-01T22:03:45.910Z,99.90
2023-03-01T22:06:25.429Z,99.90
2023-03-01T22:08:56.687Z,99.90
2023-03-01T22:11:26.311Z,99.90
2023-03-01T22:13:55.589Z,99.90
2023-03-01T22:16:26.299Z,99.90
2023-03-01T22:18:53.977Z,99.90
2023-03-01T22:21:22.996Z,99.90
2023-03-01T22:23:51.714Z,99.90
2023-03-01T22:26:28.015Z,99.90
2023-03-01T22:28:57.015Z,99.90
2023-03-01T22:31:24.875Z,99.90
2023-03-01T22:33:53.943Z,99.90
2023-03-01T22:36:21.605Z,99.90
2023-03-01T22:38:48.938Z,99.90
2023-03-01T22:41:16.246Z,99.90
2023-03-01T22:43:43.500Z,99.90
2023-03-01T22:46:13.877Z,99.90
2023-03-01T22:48:41.689Z,99.90
2023-03-01T22:51:17.719Z,99.90
2023-03-01T22:53:45.460Z,99.90
2023-03-01T22:56:14.609Z,99.90
2023-03-01T22:58:42.397Z,99.90
2023-03-01T23:01:11.389Z,99.90
2023-03-01T23:03:39.389Z,99.90
2023-03-01T23:06:06.996Z,99.90
2023-03-01T23:08:34.409Z,99.90
2023-03-01T23:11:01.869Z,99.90
2023-03-01T23:13:29.470Z,99.90
2023-03-01T23:15:57.801Z,99.90
2023-03-01T23:18:25.130Z,99.90
2023-03-01T23:20:52.502Z,99.90
2023-03-01T23:23:20.079Z,99.90
2023-03-01T23:25:58.393Z,99.90
2023-03-01T23:28:26.271Z,99.90
2023-03-01T23:30:58.894Z,99.90
2023-03-01T23:33:27.597Z,99.90
2023-03-01T23:35:54.836Z,99.90
2023-03-01T23:38:22.170Z,99.90
2023-03-01T23:40:49.489Z,99.90
2023-03-01T23:43:16.825Z,99.90
2023-03-01T23:45:44.194Z,99.90
2023-03-01T23:48:13.063Z,99.90
2023-03-01T23:50:44.060Z,99.90
2023-03-01T23:53:14.247Z,99.90
2023-03-01T23:55:47.376Z,99.90
2023-03-01T23:58:14.638Z,99.90
